Hungerford, United Kingdom
Current Conditions -  °F | °C
As of 7:50 PM on Friday 24 Oct 2014 (Local Time) from EGVP Reporting Station
Broken Clouds Broken Clouds  
Wind Chill: 55°   Ceiling: 3600
Heat Index: 55°   Visibility: 6mi
Dew Point: 50°   Wind: 8mph
Humidity: 82%   Direction: 280°W
Pressure: 29.94"   Gusts: NA
Location:  51.42°N, 1.52°W
Report Text: EGVP 241850Z AUTO 28007KT 9999 // SCT031/// BKN036/// 13/10 Q1014
Loading
Personal Weather Stations






























Interactive Weather Map
Tropical Storm Tracking
New forecast layout! Learn more

10-Day Weather Forecast

Advertisements
Track Severe Weather on mobile